KCTY

Cross City Airport

Cross City, Florida, USA
METAR KCTY 221815Z AUTO 08007KT 030V120 10SM CLR 26/14 A3017 RMK AO2 T02590137
Observed Flight Rules
Oct-22 @ 18:15 UTC (27 minutes ago) Visual Flight Rules
Wind Visibility Clouds
80° at 7 knots 10 miles
  • Clear skies
Temperatures Readings
Current 26°C / 79°F
Dewpoint 14°C / 57°F
Humidity 48%
Altimeter 30.17" Hg
Pressure 1022 hPa
Elevation 13
METAR KCTY 221815Z AUTO 08007KT 030V120 10SM CLR 26/14 A3017 RMK AO2 T02590137
Observed Flight Rules
Oct-22 @ 18:15 UTC
(27 minutes ago)
VFR
Wind Visibility
80° at 7 knots 10 miles
Clouds
  • Clear skies
Temperature Dewpoint
26°C / 79°F 14°C / 57°F
Humidity Altimeter Pressure
48% 30.17" Hg 1022 hPa